KCBF/CBF METAR and TAF weather

Enter ICAO airport designator
Station Type Date Time Source
KCBF METAR 2020/04/06 09:55 UTC NOAA

KCBF 060955Z AUTO 15009KT 10SM BKN013 OVC044 10/09 A2988 RMK AO2


Station Type Date Time Source
KCBF Decoded METAR 2020/04/06 09:55 UTC NOAA

Council Bluffs, IA, United States (KCBF) 41-16N 095-46W
Apr 06, 2020 - 05:55 AM EDT / 2020.04.06 0955 UTC
Wind: from the SSE (150 degrees) at 10 MPH (9 KT):0
Visibility: 10 mile(s):0
Sky conditions: overcast
Temperature: 50 F (10 C)
Dew Point: 48 F (9 C)
Relative Humidity: 93%
Pressure (altimeter): 29.88 in. Hg (1011 hPa)
ob: KCBF 060955Z AUTO 15009KT 10SM BKN013 OVC044 10/09 A2988 RMK AO2
cycle: 10

Station Type Date Time Source
KCBF TAF UTC NOAA

Error!

Example: see airport list